createdAt,value
2018-09-21T00:00:03.803Z,99959.00
2018-09-21T00:02:35.710Z,99954.00
2018-09-21T00:05:06.062Z,99954.00
2018-09-21T00:07:37.741Z,99952.00
2018-09-21T00:10:09.309Z,99950.00
2018-09-21T00:12:38.934Z,99945.00
2018-09-21T00:15:08.740Z,99952.00
2018-09-21T00:17:38.454Z,99951.00
2018-09-21T00:20:08.128Z,99948.00
2018-09-21T00:22:37.638Z,99948.00
2018-09-21T00:25:07.150Z,99950.00
2018-09-21T00:27:36.714Z,99942.00
2018-09-21T00:30:07.374Z,99945.00
2018-09-21T00:32:38.151Z,99946.00
2018-09-21T00:35:09.765Z,99938.00
2018-09-21T00:37:40.805Z,99937.00
2018-09-21T00:40:12.722Z,99932.00
2018-09-21T00:42:42.146Z,99931.00
2018-09-21T00:45:14.646Z,99928.00
2018-09-21T00:47:44.507Z,99917.00
2018-09-21T00:50:14.093Z,99918.00
2018-09-21T00:52:45.669Z,99916.00
2018-09-21T00:55:15.439Z,99912.00
2018-09-21T00:57:45.373Z,99910.00
2018-09-21T01:00:16.204Z,99910.00
2018-09-21T01:02:46.979Z,99913.00
2018-09-21T01:05:17.556Z,99910.00
2018-09-21T01:07:47.322Z,99906.00
2018-09-21T01:10:19.149Z,99907.00
2018-09-21T01:12:51.797Z,99901.00
2018-09-21T01:15:21.507Z,99905.00
2018-09-21T01:17:51.434Z,99902.00
2018-09-21T01:20:21.235Z,99900.00
2018-09-21T01:22:57.189Z,99903.00
2018-09-21T01:25:26.839Z,99897.00
2018-09-21T01:28:00.458Z,99891.00
2018-09-21T01:30:30.421Z,99900.00
2018-09-21T01:32:59.994Z,99896.00
2018-09-21T01:35:29.737Z,99894.00
2018-09-21T01:37:59.413Z,99888.00
2018-09-21T01:40:29.978Z,99888.00
2018-09-21T01:43:03.189Z,99879.00
2018-09-21T01:45:33.391Z,99879.00
2018-09-21T01:48:03.913Z,99878.00
2018-09-21T01:50:34.480Z,99875.00
2018-09-21T01:53:06.204Z,99878.00
2018-09-21T01:55:36.938Z,99874.00
2018-09-21T01:58:08.004Z,99872.00
2018-09-21T02:00:40.041Z,99874.00
2018-09-21T02:03:12.953Z,99874.00
2018-09-21T02:05:43.701Z,99869.00
2018-09-21T02:08:14.303Z,99872.00
2018-09-21T02:10:44.340Z,99864.00
2018-09-21T02:13:14.192Z,99858.00
2018-09-21T02:15:44.474Z,99855.00
2018-09-21T02:18:14.272Z,99850.00
2018-09-21T02:20:44.093Z,99847.00
2018-09-21T02:23:14.003Z,99845.00
2018-09-21T02:25:43.711Z,99834.00
2018-09-21T02:28:13.383Z,99838.00
2018-09-21T02:30:44.174Z,99831.00
2018-09-21T02:33:14.030Z,99840.00
2018-09-21T02:35:46.611Z,99837.00
2018-09-21T02:38:16.590Z,99831.00
2018-09-21T02:40:47.185Z,99831.00
2018-09-21T02:43:19.868Z,99827.00
2018-09-21T02:45:50.945Z,99824.00
2018-09-21T02:48:25.337Z,99823.00
2018-09-21T02:50:55.137Z,99822.00
2018-09-21T02:53:26.581Z,99814.00
2018-09-21T02:55:57.461Z,99814.00
2018-09-21T02:58:27.382Z,99811.00
2018-09-21T03:00:59.258Z,99809.00
2018-09-21T03:03:28.955Z,99806.00
2018-09-21T03:06:00.498Z,99804.00
2018-09-21T03:08:30.489Z,99803.00
2018-09-21T03:11:01.723Z,99799.00
2018-09-21T03:13:32.608Z,99797.00
2018-09-21T03:16:17.976Z,99794.00
2018-09-21T03:18:47.958Z,99789.00
2018-09-21T03:21:19.402Z,99791.00
2018-09-21T03:23:49.218Z,99787.00
2018-09-21T03:26:21.422Z,99789.00
2018-09-21T03:28:51.354Z,99790.00
2018-09-21T03:31:21.387Z,99783.00
2018-09-21T03:33:51.372Z,99786.00
2018-09-21T03:36:21.299Z,99784.00
2018-09-21T03:38:51.858Z,99785.00
2018-09-21T03:41:21.693Z,99776.00
2018-09-21T03:43:51.401Z,99777.00
2018-09-21T03:46:24.633Z,99775.00
2018-09-21T03:48:58.135Z,99771.00
2018-09-21T03:51:28.496Z,99769.00
2018-09-21T03:53:59.175Z,99770.00
2018-09-21T03:56:29.029Z,99756.00
2018-09-21T03:59:00.933Z,99759.00
2018-09-21T04:01:31.809Z,99753.00
2018-09-21T04:04:03.130Z,99742.00
2018-09-21T04:06:33.705Z,99745.00
2018-09-21T04:09:06.511Z,99749.00
2018-09-21T04:11:38.494Z,99732.00
2018-09-21T04:14:10.449Z,99731.00
2018-09-21T04:16:42.313Z,99727.00
2018-09-21T04:19:12.737Z,99719.00
2018-09-21T04:21:43.230Z,99722.00
2018-09-21T04:24:13.182Z,99712.00
2018-09-21T04:26:45.100Z,99708.00
2018-09-21T04:29:16.090Z,99706.00
2018-09-21T04:31:47.695Z,99700.00
2018-09-21T04:34:18.110Z,99702.00
2018-09-21T04:36:52.540Z,99697.00
2018-09-21T04:39:23.157Z,99695.00
2018-09-21T04:41:53.027Z,99692.00
2018-09-21T04:44:25.725Z,99685.00
2018-09-21T04:47:03.673Z,99685.00
2018-09-21T04:49:34.757Z,99679.00
2018-09-21T04:52:05.063Z,99682.00
2018-09-21T04:54:35.461Z,99683.00
2018-09-21T04:57:06.280Z,99687.00
2018-09-21T04:59:37.265Z,99683.00
2018-09-21T05:02:08.716Z,99686.00
2018-09-21T05:04:43.055Z,99688.00
2018-09-21T05:07:13.590Z,99686.00
2018-09-21T05:09:48.184Z,99690.00
2018-09-21T05:12:24.063Z,99684.00
2018-09-21T05:14:56.657Z,99682.00
2018-09-21T05:17:32.337Z,99681.00
2018-09-21T05:20:05.538Z,99680.00
2018-09-21T05:22:38.422Z,99682.00
2018-09-21T05:25:15.681Z,99682.00
2018-09-21T05:27:51.782Z,99674.00
2018-09-21T05:30:24.231Z,99667.00
2018-09-21T05:32:56.015Z,99672.00
2018-09-21T05:35:25.656Z,99668.00
2018-09-21T05:37:55.389Z,99672.00
2018-09-21T05:40:27.844Z,99667.00
2018-09-21T05:42:58.335Z,99670.00
2018-09-21T05:45:29.885Z,99668.00
2018-09-21T05:48:01.414Z,99666.00
2018-09-21T05:50:36.657Z,99665.00
2018-09-21T05:53:08.083Z,99667.00
2018-09-21T05:55:37.840Z,99665.00
2018-09-21T05:58:09.656Z,99666.00
2018-09-21T06:00:39.929Z,99652.00
2018-09-21T06:03:10.382Z,99661.00
2018-09-21T06:05:40.933Z,99654.00
2018-09-21T06:08:10.745Z,99655.00
2018-09-21T06:10:42.756Z,99656.00
2018-09-21T06:13:13.542Z,99660.00
2018-09-21T06:15:43.336Z,99655.00
2018-09-21T06:18:16.693Z,99653.00
2018-09-21T06:20:50.193Z,99647.00
2018-09-21T06:23:21.473Z,99646.00
2018-09-21T06:25:51.969Z,99642.00
2018-09-21T06:28:23.063Z,99645.00
2018-09-21T06:30:55.070Z,99647.00
2018-09-21T06:33:27.109Z,99648.00
2018-09-21T06:35:57.030Z,99644.00
2018-09-21T06:38:29.663Z,99642.00
2018-09-21T06:41:00.895Z,99637.00
2018-09-21T06:46:18.362Z,99635.00
2018-09-21T06:48:53.167Z,99627.00
2018-09-21T06:51:22.814Z,99624.00
2018-09-21T06:53:53.439Z,99621.00
2018-09-21T06:56:24.606Z,99613.00
2018-09-21T06:58:55.847Z,99606.00
2018-09-21T07:01:25.686Z,99606.00
2018-09-21T07:03:55.366Z,99603.00
2018-09-21T07:06:25.610Z,99597.00
2018-09-21T07:08:56.258Z,99601.00
2018-09-21T07:11:25.859Z,99601.00
2018-09-21T07:13:55.816Z,99591.00
2018-09-21T07:16:25.545Z,99590.00
2018-09-21T07:18:56.740Z,99590.00
2018-09-21T07:21:27.357Z,99590.00
2018-09-21T07:23:57.247Z,99593.00
2018-09-21T07:26:29.946Z,99589.00
2018-09-21T07:29:02.429Z,99592.00
2018-09-21T07:31:33.975Z,99584.00
2018-09-21T07:34:03.792Z,99588.00
2018-09-21T07:36:33.493Z,99582.00
2018-09-21T07:39:04.737Z,99584.00
2018-09-21T07:41:34.309Z,99588.00
2018-09-21T07:44:04.714Z,99588.00
2018-09-21T07:46:34.489Z,99588.00
2018-09-21T07:49:05.817Z,99591.00
2018-09-21T07:51:35.744Z,99582.00
2018-09-21T07:54:05.662Z,99570.00
2018-09-21T07:56:36.840Z,99570.00
2018-09-21T07:59:09.116Z,99568.00
2018-09-21T08:01:38.741Z,99564.00
2018-09-21T08:04:08.966Z,99567.00
2018-09-21T08:06:39.509Z,99568.00
2018-09-21T08:09:10.872Z,99566.00
2018-09-21T08:11:40.374Z,99562.00
2018-09-21T08:14:10.802Z,99551.00
2018-09-21T08:16:44.963Z,99550.00
2018-09-21T08:19:14.702Z,99539.00
2018-09-21T08:21:44.576Z,99540.00
2018-09-21T08:24:14.057Z,99542.00
2018-09-21T08:26:44.107Z,99539.00
2018-09-21T08:29:13.988Z,99526.00
2018-09-21T08:31:44.885Z,99525.00
2018-09-21T08:34:14.476Z,99520.00
2018-09-21T08:36:44.248Z,99509.00
2018-09-21T08:39:15.158Z,99512.00
2018-09-21T08:41:46.234Z,99507.00
2018-09-21T08:44:17.152Z,99496.00
2018-09-21T08:46:47.174Z,99496.00
2018-09-21T08:49:20.039Z,99485.00
2018-09-21T08:51:50.398Z,99476.00
2018-09-21T08:54:21.435Z,99488.00
2018-09-21T08:56:51.364Z,99486.00
2018-09-21T08:59:21.186Z,99482.00
2018-09-21T09:01:52.065Z,99486.00
2018-09-21T09:04:23.014Z,99478.00
2018-09-21T09:06:52.727Z,99478.00
2018-09-21T09:09:28.237Z,99469.00
2018-09-21T09:11:58.664Z,99465.00
2018-09-21T09:14:28.533Z,99467.00
2018-09-21T09:17:00.593Z,99469.00
2018-09-21T09:19:34.704Z,99460.00
2018-09-21T09:22:06.140Z,99450.00
2018-09-21T09:24:36.113Z,99453.00
2018-09-21T09:27:06.908Z,99445.00
2018-09-21T09:29:37.884Z,99439.00
2018-09-21T09:32:07.883Z,99435.00
2018-09-21T09:34:39.263Z,99425.00
2018-09-21T09:37:09.238Z,99424.00
2018-09-21T09:39:40.246Z,99431.00
2018-09-21T09:42:16.560Z,99427.00
2018-09-21T09:44:47.275Z,99427.00
2018-09-21T09:47:17.368Z,99418.00
2018-09-21T09:49:47.211Z,99408.00
2018-09-21T09:52:17.206Z,99403.00
2018-09-21T09:54:47.214Z,99403.00
2018-09-21T09:57:17.222Z,99406.00
2018-09-21T09:59:47.163Z,99399.00
2018-09-21T10:02:16.953Z,99404.00
2018-09-21T10:04:46.800Z,99407.00
2018-09-21T10:07:16.447Z,99405.00
2018-09-21T10:09:46.099Z,99409.00
2018-09-21T10:12:16.328Z,99406.00
2018-09-21T10:14:45.984Z,99404.00
2018-09-21T10:17:18.589Z,99400.00
2018-09-21T10:19:48.232Z,99388.00
2018-09-21T10:22:19.828Z,99379.00
2018-09-21T10:24:49.526Z,99361.00
2018-09-21T10:27:19.419Z,99358.00
2018-09-21T10:29:49.094Z,99350.00
2018-09-21T10:32:19.376Z,99350.00
2018-09-21T10:34:50.288Z,99348.00
2018-09-21T10:37:22.858Z,99345.00
2018-09-21T10:39:53.085Z,99341.00
2018-09-21T10:42:23.881Z,99321.00
2018-09-21T10:44:53.608Z,99340.00
2018-09-21T10:47:27.395Z,99329.00
2018-09-21T10:50:00.509Z,99322.00
2018-09-21T10:52:30.951Z,99326.00
2018-09-21T10:55:01.749Z,99332.00
2018-09-21T10:57:31.913Z,99336.00
2018-09-21T11:00:01.784Z,99335.00
2018-09-21T11:02:31.625Z,99325.00
2018-09-21T11:05:08.950Z,99321.00
2018-09-21T11:07:42.072Z,99326.00
2018-09-21T11:10:12.085Z,99318.00
2018-09-21T11:12:41.861Z,99311.00
2018-09-21T11:15:11.632Z,99311.00
2018-09-21T11:17:41.537Z,99315.00
2018-09-21T11:20:11.349Z,99316.00
2018-09-21T11:22:44.645Z,99330.00
2018-09-21T11:25:15.016Z,99326.00
2018-09-21T11:27:44.781Z,99305.00
2018-09-21T11:30:15.627Z,99327.00
2018-09-21T11:32:45.438Z,99314.00
2018-09-21T11:35:15.256Z,99302.00
2018-09-21T11:37:45.032Z,99305.00
2018-09-21T11:40:15.052Z,99309.00
2018-09-21T11:42:45.400Z,99301.00
2018-09-21T11:45:17.159Z,99297.00
2018-09-21T11:47:47.623Z,99299.00
2018-09-21T11:50:17.243Z,99304.00
2018-09-21T11:52:47.121Z,99298.00
2018-09-21T11:55:23.541Z,99290.00
2018-09-21T11:57:54.518Z,99296.00
2018-09-21T12:00:25.389Z,99293.00
2018-09-21T12:02:58.687Z,99280.00
2018-09-21T12:05:28.317Z,99276.00
2018-09-21T12:07:58.084Z,99269.00
2018-09-21T12:10:29.604Z,99276.00
2018-09-21T12:13:03.310Z,99278.00
2018-09-21T12:15:33.103Z,99276.00
2018-09-21T12:18:04.389Z,99275.00
2018-09-21T12:20:34.260Z,99283.00
2018-09-21T12:23:04.289Z,99273.00
2018-09-21T12:25:34.615Z,99274.00
2018-09-21T12:28:04.473Z,99270.00
2018-09-21T12:30:37.807Z,99269.00
2018-09-21T12:33:14.240Z,99250.00
2018-09-21T12:35:44.158Z,99253.00
2018-09-21T12:38:14.000Z,99240.00
2018-09-21T12:40:44.809Z,99239.00
2018-09-21T12:43:15.223Z,99219.00
2018-09-21T12:45:44.871Z,99217.00
2018-09-21T12:48:14.470Z,99219.00
2018-09-21T12:50:44.068Z,99206.00
2018-09-21T12:53:13.686Z,99204.00
2018-09-21T12:55:43.418Z,99206.00
2018-09-21T12:58:13.257Z,99214.00
2018-09-21T13:00:48.042Z,99214.00
2018-09-21T13:03:17.980Z,99217.00
2018-09-21T13:05:50.734Z,99203.00
2018-09-21T13:08:20.511Z,99208.00
2018-09-21T13:10:50.739Z,99204.00
2018-09-21T13:13:20.544Z,99197.00
2018-09-21T13:15:52.859Z,99194.00
2018-09-21T13:18:24.278Z,99188.00
2018-09-21T13:20:57.767Z,99182.00
2018-09-21T13:23:27.592Z,99190.00
2018-09-21T13:25:57.801Z,99191.00
2018-09-21T13:28:28.740Z,99184.00
2018-09-21T13:31:00.953Z,99177.00
2018-09-21T13:33:33.424Z,99180.00
2018-09-21T13:36:04.159Z,99175.00
2018-09-21T13:38:34.267Z,99186.00
2018-09-21T13:41:07.317Z,99186.00
2018-09-21T13:43:37.339Z,99191.00
2018-09-21T13:46:08.117Z,99177.00
2018-09-21T13:48:38.246Z,99175.00
2018-09-21T13:51:10.766Z,99180.00
2018-09-21T13:53:40.480Z,99184.00
2018-09-21T13:56:10.216Z,99184.00
2018-09-21T13:58:41.130Z,99187.00
2018-09-21T14:01:21.261Z,99181.00
2018-09-21T14:04:32.916Z,99194.00
2018-09-21T14:07:07.767Z,99181.00
2018-09-21T14:09:39.288Z,99173.00
2018-09-21T14:12:09.919Z,99187.00
2018-09-21T14:14:40.994Z,99188.00
2018-09-21T14:17:11.301Z,99183.00
2018-09-21T14:19:46.628Z,99195.00
2018-09-21T14:22:19.022Z,99201.00
2018-09-21T14:24:49.012Z,99198.00
2018-09-21T14:27:20.569Z,99191.00
2018-09-21T14:29:50.707Z,99201.00
2018-09-21T14:32:27.256Z,99206.00
2018-09-21T14:34:57.063Z,99211.00
2018-09-21T14:37:34.173Z,99239.00
2018-09-21T14:40:04.582Z,99228.00
2018-09-21T14:42:41.972Z,99239.00
2018-09-21T14:45:12.448Z,99255.00
2018-09-21T14:47:42.460Z,99243.00
2018-09-21T14:50:15.208Z,99224.00
2018-09-21T14:52:45.076Z,99231.00
2018-09-21T14:55:15.129Z,99227.00
2018-09-21T14:57:45.032Z,99243.00
2018-09-21T15:00:14.921Z,99229.00
2018-09-21T15:02:45.370Z,99249.00
2018-09-21T15:05:15.187Z,99267.00
2018-09-21T15:07:44.965Z,99279.00
2018-09-21T15:10:15.439Z,99313.00
2018-09-21T15:12:45.308Z,99344.00
2018-09-21T15:15:15.257Z,99373.00
2018-09-21T15:17:45.253Z,99418.00
2018-09-21T15:20:15.437Z,99440.00
2018-09-21T15:22:45.099Z,99467.00
2018-09-21T15:25:15.635Z,99486.00
2018-09-21T15:27:45.239Z,99503.00
2018-09-21T15:30:18.423Z,99534.00
2018-09-21T15:32:48.404Z,99566.00
2018-09-21T15:35:18.009Z,99575.00
2018-09-21T15:37:47.564Z,99561.00
2018-09-21T15:40:17.274Z,99550.00
2018-09-21T15:42:47.029Z,99548.00
2018-09-21T15:45:17.127Z,99538.00
2018-09-21T15:47:47.516Z,99568.00
2018-09-21T15:50:19.686Z,99580.00
2018-09-21T15:52:49.872Z,99582.00
2018-09-21T15:55:19.767Z,99589.00
2018-09-21T15:57:50.472Z,99596.00
2018-09-21T16:00:20.305Z,99590.00
2018-09-21T16:02:50.105Z,99591.00
2018-09-21T16:05:20.693Z,99590.00
2018-09-21T16:07:50.625Z,99583.00
2018-09-21T16:10:20.292Z,99587.00
2018-09-21T16:12:50.118Z,99594.00
2018-09-21T16:15:19.900Z,99599.00
2018-09-21T16:17:49.505Z,99606.00
2018-09-21T16:20:19.149Z,99620.00
2018-09-21T16:22:49.538Z,99608.00
2018-09-21T16:25:20.242Z,99607.00
2018-09-21T16:27:49.761Z,99618.00
2018-09-21T16:30:19.396Z,99613.00
2018-09-21T16:32:49.083Z,99626.00
2018-09-21T16:35:18.430Z,99633.00
2018-09-21T16:37:47.952Z,99648.00
2018-09-21T16:40:17.272Z,99647.00
2018-09-21T16:42:46.898Z,99662.00
2018-09-21T16:45:16.572Z,99674.00
2018-09-21T16:47:46.920Z,99654.00
2018-09-21T16:50:17.461Z,99661.00
2018-09-21T16:52:47.346Z,99661.00
2018-09-21T16:55:17.061Z,99672.00
2018-09-21T16:57:46.645Z,99659.00
2018-09-21T17:00:16.675Z,99676.00
2018-09-21T17:02:46.771Z,99698.00
2018-09-21T17:05:16.631Z,99705.00
2018-09-21T17:07:46.969Z,99716.00
2018-09-21T17:10:18.541Z,99718.00
2018-09-21T17:12:48.477Z,99689.00
2018-09-21T17:15:19.335Z,99691.00
2018-09-21T17:17:49.051Z,99729.00
2018-09-21T17:20:23.953Z,99731.00
2018-09-21T17:22:53.647Z,99709.00
2018-09-21T17:25:23.948Z,99689.00
2018-09-21T17:27:55.180Z,99683.00
2018-09-21T17:30:32.521Z,99700.00
2018-09-21T17:33:03.288Z,99700.00
2018-09-21T17:35:32.939Z,99703.00
2018-09-21T17:38:02.603Z,99721.00
2018-09-21T17:40:34.373Z,99741.00
2018-09-21T17:43:04.123Z,99756.00
2018-09-21T17:45:34.033Z,99792.00
2018-09-21T17:48:03.763Z,99812.00
2018-09-21T17:50:33.673Z,99812.00
2018-09-21T17:53:03.471Z,99808.00
2018-09-21T17:55:33.159Z,99790.00
2018-09-21T17:58:02.643Z,99784.00
2018-09-21T18:00:32.308Z,99753.00
2018-09-21T18:03:02.089Z,99783.00
2018-09-21T18:05:34.597Z,99809.00
2018-09-21T18:08:05.150Z,99814.00
2018-09-21T18:10:34.867Z,99830.00
2018-09-21T18:13:06.347Z,99828.00
2018-09-21T18:15:42.134Z,99834.00
2018-09-21T18:18:13.245Z,99837.00
2018-09-21T18:20:42.826Z,99858.00
2018-09-21T18:23:12.542Z,99858.00
2018-09-21T18:25:43.009Z,99829.00
2018-09-21T18:28:12.843Z,99814.00
2018-09-21T18:30:44.518Z,99841.00
2018-09-21T18:33:14.448Z,99860.00
2018-09-21T18:35:44.266Z,99863.00
2018-09-21T18:38:14.191Z,99883.00
2018-09-21T18:40:43.953Z,99878.00
2018-09-21T18:43:21.827Z,99876.00
2018-09-21T18:45:51.691Z,99881.00
2018-09-21T18:48:22.162Z,99903.00
2018-09-21T18:50:51.686Z,99907.00
2018-09-21T18:53:23.557Z,99913.00
2018-09-21T18:55:53.417Z,99919.00
2018-09-21T18:58:23.269Z,99919.00
2018-09-21T19:00:52.780Z,99925.00
2018-09-21T19:03:23.107Z,99931.00
2018-09-21T19:05:55.580Z,99931.00
2018-09-21T19:08:25.418Z,99927.00
2018-09-21T19:10:59.573Z,99940.00
2018-09-21T19:13:29.823Z,99957.00
2018-09-21T19:16:03.908Z,99955.00
2018-09-21T19:18:37.961Z,99969.00
2018-09-21T19:21:10.326Z,99976.00
2018-09-21T19:23:40.678Z,99974.00
2018-09-21T19:26:15.309Z,99980.00
2018-09-21T19:31:35.442Z,99992.00
2018-09-21T19:34:06.344Z,99995.00
2018-09-21T19:36:37.743Z,100008.00
2018-09-21T19:39:12.537Z,100010.00
2018-09-21T19:41:42.679Z,100017.00
2018-09-21T19:44:13.487Z,100016.00
2018-09-21T19:46:45.087Z,100022.00
2018-09-21T19:49:15.591Z,100027.00
2018-09-21T19:51:45.982Z,100031.00
2018-09-21T19:54:16.180Z,100036.00
2018-09-21T19:56:52.435Z,100046.00
2018-09-21T19:59:24.431Z,100046.00
2018-09-21T20:01:54.960Z,100054.00
2018-09-21T20:04:24.684Z,100053.00
2018-09-21T20:06:54.611Z,100066.00
2018-09-21T20:09:24.308Z,100077.00
2018-09-21T20:12:02.166Z,100079.00
2018-09-21T20:14:31.986Z,100085.00
2018-09-21T20:17:02.187Z,100093.00
2018-09-21T20:19:35.076Z,100095.00
2018-09-21T20:22:08.325Z,100101.00
2018-09-21T20:24:38.847Z,100103.00
2018-09-21T20:27:11.316Z,100104.00
2018-09-21T20:29:41.199Z,100100.00
2018-09-21T20:32:15.894Z,100109.00
2018-09-21T20:34:45.388Z,100113.00
2018-09-21T20:37:14.919Z,100113.00
2018-09-21T20:39:44.617Z,100117.00
2018-09-21T20:42:17.191Z,100125.00
2018-09-21T20:44:47.075Z,100130.00
2018-09-21T20:47:17.652Z,100142.00
2018-09-21T20:49:47.706Z,100141.00
2018-09-21T20:52:20.903Z,100150.00
2018-09-21T20:54:54.014Z,100152.00
2018-09-21T20:57:23.895Z,100163.00
2018-09-21T20:59:54.205Z,100160.00
2018-09-21T21:02:29.376Z,100160.00
2018-09-21T21:04:58.976Z,100157.00
2018-09-21T21:07:32.363Z,100161.00
2018-09-21T21:10:01.894Z,100160.00
2018-09-21T21:12:32.367Z,100168.00
2018-09-21T21:15:02.000Z,100172.00
2018-09-21T21:17:31.649Z,100177.00
2018-09-21T21:20:02.637Z,100167.00
2018-09-21T21:22:33.274Z,100179.00
2018-09-21T21:25:04.076Z,100183.00
2018-09-21T21:27:38.895Z,100184.00
2018-09-21T21:30:09.610Z,100181.00
2018-09-21T21:32:40.320Z,100186.00
2018-09-21T21:35:09.951Z,100187.00
2018-09-21T21:37:40.020Z,100193.00
2018-09-21T21:40:09.669Z,100195.00
2018-09-21T21:42:39.431Z,100200.00
2018-09-21T21:45:10.395Z,100199.00
2018-09-21T21:47:40.173Z,100195.00
2018-09-21T21:50:09.907Z,100199.00
2018-09-21T21:52:40.589Z,100195.00
2018-09-21T21:55:10.360Z,100208.00
2018-09-21T21:57:44.409Z,100198.00
2018-09-21T22:00:14.299Z,100208.00
2018-09-21T22:02:49.900Z,100208.00
2018-09-21T22:05:22.925Z,100203.00
2018-09-21T22:07:55.834Z,100202.00
2018-09-21T22:10:26.397Z,100201.00
2018-09-21T22:13:01.899Z,100210.00
2018-09-21T22:15:32.773Z,100214.00
2018-09-21T22:18:04.127Z,100218.00
2018-09-21T22:20:45.280Z,100215.00
2018-09-21T22:23:17.432Z,100210.00
2018-09-21T22:25:57.382Z,100210.00
2018-09-21T22:28:32.722Z,100208.00
2018-09-21T22:31:03.296Z,100210.00
2018-09-21T22:33:35.741Z,100212.00
2018-09-21T22:36:06.590Z,100226.00
2018-09-21T22:38:37.445Z,100221.00
2018-09-21T22:41:07.802Z,100224.00
2018-09-21T22:43:37.408Z,100238.00
2018-09-21T22:46:09.781Z,100236.00
2018-09-21T22:48:41.879Z,100242.00
2018-09-21T22:51:11.670Z,100238.00
2018-09-21T22:53:41.555Z,100242.00
2018-09-21T22:56:11.284Z,100246.00
2018-09-21T22:58:41.036Z,100257.00
2018-09-21T23:01:14.881Z,100256.00
2018-09-21T23:03:44.748Z,100251.00
2018-09-21T23:06:15.137Z,100256.00
2018-09-21T23:08:45.151Z,100255.00
2018-09-21T23:11:15.139Z,100261.00
2018-09-21T23:13:44.859Z,100259.00
2018-09-21T23:16:14.434Z,100259.00
2018-09-21T23:18:45.387Z,100265.00
2018-09-21T23:21:15.061Z,100265.00
2018-09-21T23:23:45.215Z,100267.00
2018-09-21T23:26:15.643Z,100266.00
2018-09-21T23:28:45.348Z,100267.00
2018-09-21T23:31:14.994Z,100270.00
2018-09-21T23:33:45.529Z,100272.00
2018-09-21T23:36:15.450Z,100281.00
2018-09-21T23:38:45.195Z,100280.00
2018-09-21T23:41:15.799Z,100283.00
2018-09-21T23:43:48.021Z,100281.00
2018-09-21T23:46:17.835Z,100289.00
2018-09-21T23:48:47.880Z,100288.00
2018-09-21T23:51:17.385Z,100286.00
2018-09-21T23:53:46.793Z,100285.00
2018-09-21T23:56:16.194Z,100286.00
2018-09-21T23:58:45.866Z,100281.00
